sensor_id;sensor_type;location;lat;lon;timestamp;temperature;humidity
1700;DHT22;847;48.058;7.810;2023-03-26T00:01:58;11.20;91.30
1700;DHT22;847;48.058;7.810;2023-03-26T00:04:25;11.20;91.30
1700;DHT22;847;48.058;7.810;2023-03-26T00:06:52;11.20;91.50
1700;DHT22;847;48.058;7.810;2023-03-26T00:09:20;11.20;91.60
1700;DHT22;847;48.058;7.810;2023-03-26T00:11:47;11.20;91.00
1700;DHT22;847;48.058;7.810;2023-03-26T00:14:15;11.20;91.00
1700;DHT22;847;48.058;7.810;2023-03-26T00:16:43;11.20;91.10
1700;DHT22;847;48.058;7.810;2023-03-26T00:19:10;11.10;91.20
1700;DHT22;847;48.058;7.810;2023-03-26T00:21:37;11.10;91.40
1700;DHT22;847;48.058;7.810;2023-03-26T00:24:06;11.10;91.10
1700;DHT22;847;48.058;7.810;2023-03-26T00:26:34;11.10;90.90
1700;DHT22;847;48.058;7.810;2023-03-26T00:29:02;11.10;90.90
1700;DHT22;847;48.058;7.810;2023-03-26T00:31:30;11.10;90.70
1700;DHT22;847;48.058;7.810;2023-03-26T00:33:57;11.10;90.70
1700;DHT22;847;48.058;7.810;2023-03-26T00:36:28;11.10;90.40
1700;DHT22;847;48.058;7.810;2023-03-26T00:38:54;11.20;90.00
1700;DHT22;847;48.058;7.810;2023-03-26T00:41:23;11.20;89.70
1700;DHT22;847;48.058;7.810;2023-03-26T00:43:52;11.20;89.60
1700;DHT22;847;48.058;7.810;2023-03-26T00:46:21;11.20;89.70
1700;DHT22;847;48.058;7.810;2023-03-26T00:48:49;11.20;89.60
1700;DHT22;847;48.058;7.810;2023-03-26T00:51:17;11.20;89.40
1700;DHT22;847;48.058;7.810;2023-03-26T00:53:44;11.10;89.60
1700;DHT22;847;48.058;7.810;2023-03-26T00:56:12;11.10;89.30
1700;DHT22;847;48.058;7.810;2023-03-26T00:58:39;11.20;89.10
1700;DHT22;847;48.058;7.810;2023-03-26T01:01:08;11.20;89.10
1700;DHT22;847;48.058;7.810;2023-03-26T01:03:37;11.10;89.10
1700;DHT22;847;48.058;7.810;2023-03-26T01:06:07;11.20;88.70
1700;DHT22;847;48.058;7.810;2023-03-26T01:08:38;11.20;88.40
1700;DHT22;847;48.058;7.810;2023-03-26T01:11:09;11.20;88.60
1700;DHT22;847;48.058;7.810;2023-03-26T01:13:40;11.10;88.70
1700;DHT22;847;48.058;7.810;2023-03-26T01:16:13;11.10;88.50
1700;DHT22;847;48.058;7.810;2023-03-26T01:18:45;11.10;88.20
1700;DHT22;847;48.058;7.810;2023-03-26T01:21:18;11.20;88.10
1700;DHT22;847;48.058;7.810;2023-03-26T01:23:55;11.10;88.10
1700;DHT22;847;48.058;7.810;2023-03-26T01:26:34;11.10;87.90
1700;DHT22;847;48.058;7.810;2023-03-26T01:29:03;11.10;87.60
1700;DHT22;847;48.058;7.810;2023-03-26T01:31:38;11.10;87.30
1700;DHT22;847;48.058;7.810;2023-03-26T01:34:14;11.10;87.30
1700;DHT22;847;48.058;7.810;2023-03-26T01:36:50;11.10;87.40
1700;DHT22;847;48.058;7.810;2023-03-26T01:39:23;11.00;87.50
1700;DHT22;847;48.058;7.810;2023-03-26T01:41:57;11.00;87.50
1700;DHT22;847;48.058;7.810;2023-03-26T01:44:32;11.00;87.40
1700;DHT22;847;48.058;7.810;2023-03-26T01:47:00;11.00;87.50
1700;DHT22;847;48.058;7.810;2023-03-26T01:49:27;11.00;87.80
1700;DHT22;847;48.058;7.810;2023-03-26T01:51:55;11.00;87.30
1700;DHT22;847;48.058;7.810;2023-03-26T01:54:25;11.00;87.40
1700;DHT22;847;48.058;7.810;2023-03-26T01:57:01;11.00;87.40
1700;DHT22;847;48.058;7.810;2023-03-26T01:59:41;11.00;87.40
1700;DHT22;847;48.058;7.810;2023-03-26T02:02:13;11.00;87.70
1700;DHT22;847;48.058;7.810;2023-03-26T02:04:48;11.00;87.70
1700;DHT22;847;48.058;7.810;2023-03-26T02:07:21;11.00;87.40
1700;DHT22;847;48.058;7.810;2023-03-26T02:09:54;11.00;87.40
1700;DHT22;847;48.058;7.810;2023-03-26T02:12:23;11.00;87.20
1700;DHT22;847;48.058;7.810;2023-03-26T02:14:50;11.00;87.10
1700;DHT22;847;48.058;7.810;2023-03-26T02:17:17;11.00;87.30
1700;DHT22;847;48.058;7.810;2023-03-26T02:19:49;11.00;87.20
1700;DHT22;847;48.058;7.810;2023-03-26T02:22:16;11.00;87.30
1700;DHT22;847;48.058;7.810;2023-03-26T02:24:43;11.00;87.40
1700;DHT22;847;48.058;7.810;2023-03-26T02:27:12;11.00;87.70
1700;DHT22;847;48.058;7.810;2023-03-26T02:29:43;10.90;87.70
1700;DHT22;847;48.058;7.810;2023-03-26T02:32:10;10.90;87.50
1700;DHT22;847;48.058;7.810;2023-03-26T02:34:37;11.00;87.30
1700;DHT22;847;48.058;7.810;2023-03-26T02:37:04;11.00;87.10
1700;DHT22;847;48.058;7.810;2023-03-26T02:39:32;10.90;87.00
1700;DHT22;847;48.058;7.810;2023-03-26T02:41:58;10.90;87.30
1700;DHT22;847;48.058;7.810;2023-03-26T02:44:27;10.90;87.50
1700;DHT22;847;48.058;7.810;2023-03-26T02:46:53;11.00;87.20
1700;DHT22;847;48.058;7.810;2023-03-26T02:49:20;10.90;87.30
1700;DHT22;847;48.058;7.810;2023-03-26T02:51:52;10.90;87.50
1700;DHT22;847;48.058;7.810;2023-03-26T02:54:20;10.90;86.70
1700;DHT22;847;48.058;7.810;2023-03-26T02:56:47;10.90;86.50
1700;DHT22;847;48.058;7.810;2023-03-26T02:59:14;10.90;87.20
1700;DHT22;847;48.058;7.810;2023-03-26T03:01:42;10.90;87.40
1700;DHT22;847;48.058;7.810;2023-03-26T03:04:09;10.90;87.10
1700;DHT22;847;48.058;7.810;2023-03-26T03:06:37;10.90;87.30
1700;DHT22;847;48.058;7.810;2023-03-26T03:09:05;10.90;87.30
1700;DHT22;847;48.058;7.810;2023-03-26T03:11:33;10.90;87.50
1700;DHT22;847;48.058;7.810;2023-03-26T03:14:00;10.90;87.20
1700;DHT22;847;48.058;7.810;2023-03-26T03:16:27;10.90;87.30
1700;DHT22;847;48.058;7.810;2023-03-26T03:18:55;10.90;87.40
1700;DHT22;847;48.058;7.810;2023-03-26T03:21:24;10.90;87.00
1700;DHT22;847;48.058;7.810;2023-03-26T03:23:52;10.90;87.60
1700;DHT22;847;48.058;7.810;2023-03-26T03:26:20;10.90;87.60
1700;DHT22;847;48.058;7.810;2023-03-26T03:28:47;10.90;87.50
1700;DHT22;847;48.058;7.810;2023-03-26T03:31:14;10.90;87.90
1700;DHT22;847;48.058;7.810;2023-03-26T03:33:42;10.90;88.10
1700;DHT22;847;48.058;7.810;2023-03-26T03:36:12;10.80;88.10
1700;DHT22;847;48.058;7.810;2023-03-26T03:38:43;10.80;88.90
1700;DHT22;847;48.058;7.810;2023-03-26T03:41:10;10.80;88.20
1700;DHT22;847;48.058;7.810;2023-03-26T03:43:37;10.80;88.40
1700;DHT22;847;48.058;7.810;2023-03-26T03:46:04;10.80;88.20
1700;DHT22;847;48.058;7.810;2023-03-26T03:48:30;10.80;88.50
1700;DHT22;847;48.058;7.810;2023-03-26T03:50:57;10.80;89.50
1700;DHT22;847;48.058;7.810;2023-03-26T03:53:25;10.80;89.70
1700;DHT22;847;48.058;7.810;2023-03-26T03:55:53;10.80;89.50
1700;DHT22;847;48.058;7.810;2023-03-26T03:58:20;10.70;91.50
1700;DHT22;847;48.058;7.810;2023-03-26T04:00:48;10.70;91.20
1700;DHT22;847;48.058;7.810;2023-03-26T04:03:15;10.60;91.00
1700;DHT22;847;48.058;7.810;2023-03-26T04:05:43;10.60;92.00
1700;DHT22;847;48.058;7.810;2023-03-26T04:08:14;10.60;91.80
1700;DHT22;847;48.058;7.810;2023-03-26T04:10:43;10.50;94.00
1700;DHT22;847;48.058;7.810;2023-03-26T04:13:10;10.50;93.50
1700;DHT22;847;48.058;7.810;2023-03-26T04:15:38;10.50;93.10
1700;DHT22;847;48.058;7.810;2023-03-26T04:18:05;10.50;93.40
1700;DHT22;847;48.058;7.810;2023-03-26T04:20:35;10.40;91.90
1700;DHT22;847;48.058;7.810;2023-03-26T04:23:03;10.40;93.10
1700;DHT22;847;48.058;7.810;2023-03-26T04:25:30;10.30;93.50
1700;DHT22;847;48.058;7.810;2023-03-26T04:28:02;10.30;93.90
1700;DHT22;847;48.058;7.810;2023-03-26T04:30:31;10.30;94.50
1700;DHT22;847;48.058;7.810;2023-03-26T04:32:59;10.30;94.70
1700;DHT22;847;48.058;7.810;2023-03-26T04:35:30;10.40;94.70
1700;DHT22;847;48.058;7.810;2023-03-26T04:37:59;10.30;93.70
1700;DHT22;847;48.058;7.810;2023-03-26T04:40:26;10.30;93.00
1700;DHT22;847;48.058;7.810;2023-03-26T04:42:55;10.30;92.30
1700;DHT22;847;48.058;7.810;2023-03-26T04:45:24;10.30;92.20
1700;DHT22;847;48.058;7.810;2023-03-26T04:47:50;10.40;91.80
1700;DHT22;847;48.058;7.810;2023-03-26T04:50:17;10.40;92.40
1700;DHT22;847;48.058;7.810;2023-03-26T04:52:44;10.40;91.90
1700;DHT22;847;48.058;7.810;2023-03-26T04:55:18;10.40;92.30
1700;DHT22;847;48.058;7.810;2023-03-26T04:57:51;10.40;92.40
1700;DHT22;847;48.058;7.810;2023-03-26T05:00:19;10.40;93.10
1700;DHT22;847;48.058;7.810;2023-03-26T05:02:47;10.40;92.60
1700;DHT22;847;48.058;7.810;2023-03-26T05:05:15;10.50;92.30
1700;DHT22;847;48.058;7.810;2023-03-26T05:07:42;10.60;92.00
1700;DHT22;847;48.058;7.810;2023-03-26T05:10:11;10.60;90.80
1700;DHT22;847;48.058;7.810;2023-03-26T05:12:39;10.70;89.90
1700;DHT22;847;48.058;7.810;2023-03-26T05:15:07;10.80;89.70
1700;DHT22;847;48.058;7.810;2023-03-26T05:17:34;10.80;89.60
1700;DHT22;847;48.058;7.810;2023-03-26T05:20:14;10.90;90.00
1700;DHT22;847;48.058;7.810;2023-03-26T05:22:41;10.90;90.20
1700;DHT22;847;48.058;7.810;2023-03-26T05:25:08;10.90;90.70
1700;DHT22;847;48.058;7.810;2023-03-26T05:27:35;11.00;90.70
1700;DHT22;847;48.058;7.810;2023-03-26T05:30:04;10.90;91.10
1700;DHT22;847;48.058;7.810;2023-03-26T05:32:32;10.90;91.40
1700;DHT22;847;48.058;7.810;2023-03-26T05:34:59;10.90;91.20
1700;DHT22;847;48.058;7.810;2023-03-26T05:37:28;10.90;91.90
1700;DHT22;847;48.058;7.810;2023-03-26T05:39:57;10.90;92.00
1700;DHT22;847;48.058;7.810;2023-03-26T05:42:23;10.90;92.00
1700;DHT22;847;48.058;7.810;2023-03-26T05:44:50;10.90;92.00
1700;DHT22;847;48.058;7.810;2023-03-26T05:47:17;10.90;92.10
1700;DHT22;847;48.058;7.810;2023-03-26T05:49:46;10.90;92.70
1700;DHT22;847;48.058;7.810;2023-03-26T05:52:13;10.90;92.60
1700;DHT22;847;48.058;7.810;2023-03-26T05:54:44;10.90;92.50
1700;DHT22;847;48.058;7.810;2023-03-26T05:57:11;10.90;92.90
1700;DHT22;847;48.058;7.810;2023-03-26T05:59:38;10.90;93.10
1700;DHT22;847;48.058;7.810;2023-03-26T06:02:06;10.90;93.50
1700;DHT22;847;48.058;7.810;2023-03-26T06:04:32;10.90;93.70
1700;DHT22;847;48.058;7.810;2023-03-26T06:06:59;10.90;94.30
1700;DHT22;847;48.058;7.810;2023-03-26T06:09:28;10.90;93.80
1700;DHT22;847;48.058;7.810;2023-03-26T06:11:56;10.90;93.70
1700;DHT22;847;48.058;7.810;2023-03-26T06:14:23;11.00;93.70
1700;DHT22;847;48.058;7.810;2023-03-26T06:16:49;11.00;93.80
1700;DHT22;847;48.058;7.810;2023-03-26T06:19:16;11.00;93.80
1700;DHT22;847;48.058;7.810;2023-03-26T06:21:43;11.00;94.00
1700;DHT22;847;48.058;7.810;2023-03-26T06:24:10;11.00;94.00
1700;DHT22;847;48.058;7.810;2023-03-26T06:26:37;10.90;94.50
1700;DHT22;847;48.058;7.810;2023-03-26T06:29:05;10.90;95.40
1700;DHT22;847;48.058;7.810;2023-03-26T06:31:31;11.00;95.70
1700;DHT22;847;48.058;7.810;2023-03-26T06:33:58;10.90;95.60
1700;DHT22;847;48.058;7.810;2023-03-26T06:36:25;11.00;96.10
1700;DHT22;847;48.058;7.810;2023-03-26T06:38:52;11.00;96.10
1700;DHT22;847;48.058;7.810;2023-03-26T06:41:18;11.00;96.80
1700;DHT22;847;48.058;7.810;2023-03-26T06:43:45;11.00;96.20
1700;DHT22;847;48.058;7.810;2023-03-26T06:46:13;11.00;96.60
1700;DHT22;847;48.058;7.810;2023-03-26T06:48:41;11.00;96.50
1700;DHT22;847;48.058;7.810;2023-03-26T06:51:08;11.00;96.60
1700;DHT22;847;48.058;7.810;2023-03-26T06:53:35;11.00;96.70
1700;DHT22;847;48.058;7.810;2023-03-26T06:56:03;11.00;96.70
1700;DHT22;847;48.058;7.810;2023-03-26T06:58:32;11.00;97.30
1700;DHT22;847;48.058;7.810;2023-03-26T07:00:59;11.00;96.90
1700;DHT22;847;48.058;7.810;2023-03-26T07:03:27;11.00;97.80
1700;DHT22;847;48.058;7.810;2023-03-26T07:05:55;11.00;97.50
1700;DHT22;847;48.058;7.810;2023-03-26T07:08:22;11.00;98.20
1700;DHT22;847;48.058;7.810;2023-03-26T07:10:48;11.00;98.80
1700;DHT22;847;48.058;7.810;2023-03-26T07:13:15;11.00;98.40
1700;DHT22;847;48.058;7.810;2023-03-26T07:15:42;10.90;98.50
1700;DHT22;847;48.058;7.810;2023-03-26T07:18:09;11.00;98.70
1700;DHT22;847;48.058;7.810;2023-03-26T07:20:38;11.00;98.00
1700;DHT22;847;48.058;7.810;2023-03-26T07:23:08;11.00;97.90
1700;DHT22;847;48.058;7.810;2023-03-26T07:25:36;11.00;98.70
1700;DHT22;847;48.058;7.810;2023-03-26T07:28:10;10.90;99.00
1700;DHT22;847;48.058;7.810;2023-03-26T07:30:47;10.80;99.00
1700;DHT22;847;48.058;7.810;2023-03-26T07:33:20;10.80;99.00
1700;DHT22;847;48.058;7.810;2023-03-26T07:36:00;10.80;99.00
1700;DHT22;847;48.058;7.810;2023-03-26T07:38:40;10.80;99.00
1700;DHT22;847;48.058;7.810;2023-03-26T07:41:13;10.70;99.00
1700;DHT22;847;48.058;7.810;2023-03-26T07:43:54;10.80;99.00
1700;DHT22;847;48.058;7.810;2023-03-26T07:46:28;10.80;99.00
1700;DHT22;847;48.058;7.810;2023-03-26T07:48:57;10.80;99.00
1700;DHT22;847;48.058;7.810;2023-03-26T07:51:27;10.80;99.00
1700;DHT22;847;48.058;7.810;2023-03-26T07:53:54;10.70;99.00
1700;DHT22;847;48.058;7.810;2023-03-26T07:56:27;10.70;99.00
1700;DHT22;847;48.058;7.810;2023-03-26T07:59:13;10.70;99.00
1700;DHT22;847;48.058;7.810;2023-03-26T08:01:56;10.80;99.00
1700;DHT22;847;48.058;7.810;2023-03-26T08:07:29;10.80;99.00
1700;DHT22;847;48.058;7.810;2023-03-26T08:10:07;10.80;99.00
1700;DHT22;847;48.058;7.810;2023-03-26T08:12:44;10.80;99.00
1700;DHT22;847;48.058;7.810;2023-03-26T08:15:19;10.80;99.00
1700;DHT22;847;48.058;7.810;2023-03-26T08:17:53;10.80;99.00
1700;DHT22;847;48.058;7.810;2023-03-26T08:20:27;10.80;99.00
1700;DHT22;847;48.058;7.810;2023-03-26T08:23:03;10.80;99.00
1700;DHT22;847;48.058;7.810;2023-03-26T08:25:33;10.80;99.00
1700;DHT22;847;48.058;7.810;2023-03-26T08:30:50;10.80;99.00
1700;DHT22;847;48.058;7.810;2023-03-26T08:33:20;10.90;99.00
1700;DHT22;847;48.058;7.810;2023-03-26T08:35:48;10.90;99.00
1700;DHT22;847;48.058;7.810;2023-03-26T08:38:18;11.00;99.00
1700;DHT22;847;48.058;7.810;2023-03-26T08:44:06;11.00;99.00
1700;DHT22;847;48.058;7.810;2023-03-26T08:47:02;11.10;99.00
1700;DHT22;847;48.058;7.810;2023-03-26T08:55:51;11.40;99.00
1700;DHT22;847;48.058;7.810;2023-03-26T08:59:07;11.50;99.00
1700;DHT22;847;48.058;7.810;2023-03-26T09:02:08;11.60;99.00
1700;DHT22;847;48.058;7.810;2023-03-26T09:05:08;11.60;99.00
1700;DHT22;847;48.058;7.810;2023-03-26T09:08:00;11.80;99.00
1700;DHT22;847;48.058;7.810;2023-03-26T09:10:51;11.80;99.00
1700;DHT22;847;48.058;7.810;2023-03-26T09:13:52;11.90;98.70
1700;DHT22;847;48.058;7.810;2023-03-26T09:23:32;12.40;96.70
1700;DHT22;847;48.058;7.810;2023-03-26T09:26:13;12.40;96.70
1700;DHT22;847;48.058;7.810;2023-03-26T09:32:19;12.70;94.90
1700;DHT22;847;48.058;7.810;2023-03-26T09:35:09;12.80;93.10
1700;DHT22;847;48.058;7.810;2023-03-26T09:37:50;12.70;91.50
1700;DHT22;847;48.058;7.810;2023-03-26T09:40:22;12.70;90.70
1700;DHT22;847;48.058;7.810;2023-03-26T09:43:00;12.70;89.90
1700;DHT22;847;48.058;7.810;2023-03-26T09:45:51;12.70;89.90
1700;DHT22;847;48.058;7.810;2023-03-26T09:51:39;12.70;87.50
1700;DHT22;847;48.058;7.810;2023-03-26T09:54:31;12.70;88.00
1700;DHT22;847;48.058;7.810;2023-03-26T09:57:05;12.70;86.90
1700;DHT22;847;48.058;7.810;2023-03-26T09:59:53;12.70;85.90
1700;DHT22;847;48.058;7.810;2023-03-26T10:02:41;12.80;86.30
1700;DHT22;847;48.058;7.810;2023-03-26T10:05:29;13.00;84.90
1700;DHT22;847;48.058;7.810;2023-03-26T10:08:18;13.20;83.60
1700;DHT22;847;48.058;7.810;2023-03-26T10:10:54;13.40;82.80
1700;DHT22;847;48.058;7.810;2023-03-26T10:13:28;13.50;82.00
1700;DHT22;847;48.058;7.810;2023-03-26T10:16:07;13.60;79.40
1700;DHT22;847;48.058;7.810;2023-03-26T10:18:48;13.60;77.00
1700;DHT22;847;48.058;7.810;2023-03-26T10:21:23;13.50;76.30
1700;DHT22;847;48.058;7.810;2023-03-26T10:24:07;13.40;77.20
1700;DHT22;847;48.058;7.810;2023-03-26T10:26:52;13.30;76.40
1700;DHT22;847;48.058;7.810;2023-03-26T10:32:21;13.20;78.20
1700;DHT22;847;48.058;7.810;2023-03-26T10:35:07;13.40;77.00
1700;DHT22;847;48.058;7.810;2023-03-26T10:37:46;13.40;76.90
1700;DHT22;847;48.058;7.810;2023-03-26T10:40:22;13.40;78.40
1700;DHT22;847;48.058;7.810;2023-03-26T10:43:18;13.40;77.10
1700;DHT22;847;48.058;7.810;2023-03-26T10:46:11;13.30;76.30
1700;DHT22;847;48.058;7.810;2023-03-26T10:49:16;13.30;76.80
1700;DHT22;847;48.058;7.810;2023-03-26T10:51:52;13.40;75.50
1700;DHT22;847;48.058;7.810;2023-03-26T10:54:28;13.30;75.10
1700;DHT22;847;48.058;7.810;2023-03-26T10:57:00;13.20;75.40
1700;DHT22;847;48.058;7.810;2023-03-26T10:59:28;13.30;76.60
1700;DHT22;847;48.058;7.810;2023-03-26T11:02:03;13.40;79.20
1700;DHT22;847;48.058;7.810;2023-03-26T11:04:42;13.30;77.60
1700;DHT22;847;48.058;7.810;2023-03-26T11:07:19;13.30;76.60
1700;DHT22;847;48.058;7.810;2023-03-26T11:09:56;13.30;75.30
1700;DHT22;847;48.058;7.810;2023-03-26T11:12:30;13.30;75.90
1700;DHT22;847;48.058;7.810;2023-03-26T11:15:06;13.30;76.40
1700;DHT22;847;48.058;7.810;2023-03-26T11:17:44;13.50;77.70
1700;DHT22;847;48.058;7.810;2023-03-26T11:20:17;13.40;76.20
1700;DHT22;847;48.058;7.810;2023-03-26T11:22:56;13.40;77.30
1700;DHT22;847;48.058;7.810;2023-03-26T11:25:40;13.40;76.90
1700;DHT22;847;48.058;7.810;2023-03-26T11:28:18;13.40;76.70
1700;DHT22;847;48.058;7.810;2023-03-26T11:30:53;13.40;75.80
1700;DHT22;847;48.058;7.810;2023-03-26T11:33:25;13.50;77.10
1700;DHT22;847;48.058;7.810;2023-03-26T11:36:00;13.60;77.00
1700;DHT22;847;48.058;7.810;2023-03-26T11:38:31;13.70;75.30
1700;DHT22;847;48.058;7.810;2023-03-26T11:41:02;13.70;76.30
1700;DHT22;847;48.058;7.810;2023-03-26T11:43:34;13.70;73.80
1700;DHT22;847;48.058;7.810;2023-03-26T11:46:02;13.70;74.10
1700;DHT22;847;48.058;7.810;2023-03-26T11:48:31;13.70;73.30
1700;DHT22;847;48.058;7.810;2023-03-26T11:51:04;13.70;73.90
1700;DHT22;847;48.058;7.810;2023-03-26T11:53:34;13.50;73.20
1700;DHT22;847;48.058;7.810;2023-03-26T11:56:05;13.40;73.50
1700;DHT22;847;48.058;7.810;2023-03-26T11:58:37;13.30;73.60
1700;DHT22;847;48.058;7.810;2023-03-26T12:01:12;13.20;72.90
1700;DHT22;847;48.058;7.810;2023-03-26T12:03:40;13.10;73.40
1700;DHT22;847;48.058;7.810;2023-03-26T12:06:21;13.00;74.10
1700;DHT22;847;48.058;7.810;2023-03-26T12:08:50;12.90;75.10
1700;DHT22;847;48.058;7.810;2023-03-26T12:11:18;12.80;76.60
1700;DHT22;847;48.058;7.810;2023-03-26T12:13:51;12.70;77.30
1700;DHT22;847;48.058;7.810;2023-03-26T12:16:19;12.70;78.00
1700;DHT22;847;48.058;7.810;2023-03-26T12:18:58;12.70;78.50
1700;DHT22;847;48.058;7.810;2023-03-26T12:21:30;12.60;78.60
1700;DHT22;847;48.058;7.810;2023-03-26T12:24:24;12.60;79.50
1700;DHT22;847;48.058;7.810;2023-03-26T12:26:55;12.60;78.80
1700;DHT22;847;48.058;7.810;2023-03-26T12:29:22;12.50;79.10
1700;DHT22;847;48.058;7.810;2023-03-26T12:31:54;12.50;79.20
1700;DHT22;847;48.058;7.810;2023-03-26T12:34:22;12.50;78.70
1700;DHT22;847;48.058;7.810;2023-03-26T12:36:56;12.40;79.20
1700;DHT22;847;48.058;7.810;2023-03-26T12:39:28;12.40;79.70
1700;DHT22;847;48.058;7.810;2023-03-26T12:41:56;12.40;80.50
1700;DHT22;847;48.058;7.810;2023-03-26T12:44:27;12.40;79.50
1700;DHT22;847;48.058;7.810;2023-03-26T12:47:09;12.30;79.80
1700;DHT22;847;48.058;7.810;2023-03-26T12:49:36;12.40;79.30
1700;DHT22;847;48.058;7.810;2023-03-26T12:52:18;12.40;79.20
1700;DHT22;847;48.058;7.810;2023-03-26T12:54:53;12.40;79.30
1700;DHT22;847;48.058;7.810;2023-03-26T12:57:29;12.40;79.00
1700;DHT22;847;48.058;7.810;2023-03-26T13:00:19;12.40;78.20
1700;DHT22;847;48.058;7.810;2023-03-26T13:02:58;12.40;78.30
1700;DHT22;847;48.058;7.810;2023-03-26T13:05:37;12.40;78.10
1700;DHT22;847;48.058;7.810;2023-03-26T13:08:32;12.40;79.10
1700;DHT22;847;48.058;7.810;2023-03-26T13:11:05;12.40;79.80
1700;DHT22;847;48.058;7.810;2023-03-26T13:13:53;12.40;80.40
1700;DHT22;847;48.058;7.810;2023-03-26T13:16:27;12.40;80.50
1700;DHT22;847;48.058;7.810;2023-03-26T13:19:00;12.40;80.90
1700;DHT22;847;48.058;7.810;2023-03-26T13:21:39;12.40;81.10
1700;DHT22;847;48.058;7.810;2023-03-26T13:24:20;12.40;81.40
1700;DHT22;847;48.058;7.810;2023-03-26T13:26:58;12.40;82.10
1700;DHT22;847;48.058;7.810;2023-03-26T13:29:33;12.40;82.70
1700;DHT22;847;48.058;7.810;2023-03-26T13:32:04;12.50;82.20
1700;DHT22;847;48.058;7.810;2023-03-26T13:34:48;12.50;82.80
1700;DHT22;847;48.058;7.810;2023-03-26T13:37:24;12.50;82.80
1700;DHT22;847;48.058;7.810;2023-03-26T13:40:07;12.60;82.70
1700;DHT22;847;48.058;7.810;2023-03-26T13:42:46;12.60;82.60
1700;DHT22;847;48.058;7.810;2023-03-26T13:45:39;12.60;82.40
1700;DHT22;847;48.058;7.810;2023-03-26T13:48:11;12.60;81.60
1700;DHT22;847;48.058;7.810;2023-03-26T13:50:42;12.60;81.20
1700;DHT22;847;48.058;7.810;2023-03-26T13:53:13;12.60;80.80
1700;DHT22;847;48.058;7.810;2023-03-26T13:55:46;12.60;81.40
1700;DHT22;847;48.058;7.810;2023-03-26T13:58:19;12.50;85.90
1700;DHT22;847;48.058;7.810;2023-03-26T14:00:57;11.80;89.70
1700;DHT22;847;48.058;7.810;2023-03-26T14:03:32;10.80;91.90
1700;DHT22;847;48.058;7.810;2023-03-26T14:06:07;10.80;95.80
1700;DHT22;847;48.058;7.810;2023-03-26T14:08:39;10.50;97.20
1700;DHT22;847;48.058;7.810;2023-03-26T14:11:11;10.10;97.40
1700;DHT22;847;48.058;7.810;2023-03-26T14:13:44;9.80;98.40
1700;DHT22;847;48.058;7.810;2023-03-26T14:16:16;9.60;98.40
1700;DHT22;847;48.058;7.810;2023-03-26T14:18:47;9.50;98.40
1700;DHT22;847;48.058;7.810;2023-03-26T14:21:37;9.60;97.90
1700;DHT22;847;48.058;7.810;2023-03-26T14:24:26;9.60;97.20
1700;DHT22;847;48.058;7.810;2023-03-26T14:27:22;9.90;99.00
1700;DHT22;847;48.058;7.810;2023-03-26T14:30:03;10.00;96.80
1700;DHT22;847;48.058;7.810;2023-03-26T14:32:49;10.20;98.70
1700;DHT22;847;48.058;7.810;2023-03-26T14:35:31;10.30;99.00
1700;DHT22;847;48.058;7.810;2023-03-26T14:38:23;10.40;98.50
1700;DHT22;847;48.058;7.810;2023-03-26T14:41:02;10.50;99.00
1700;DHT22;847;48.058;7.810;2023-03-26T14:46:55;10.50;99.00
1700;DHT22;847;48.058;7.810;2023-03-26T14:49:53;10.50;98.70
1700;DHT22;847;48.058;7.810;2023-03-26T14:52:32;10.60;98.90
1700;DHT22;847;48.058;7.810;2023-03-26T14:55:11;10.60;99.00
1700;DHT22;847;48.058;7.810;2023-03-26T14:57:56;10.70;98.80
1700;DHT22;847;48.058;7.810;2023-03-26T15:10:14;10.90;99.00
1700;DHT22;847;48.058;7.810;2023-03-26T15:13:00;11.00;98.60
1700;DHT22;847;48.058;7.810;2023-03-26T15:15:57;11.00;98.00
1700;DHT22;847;48.058;7.810;2023-03-26T15:25:18;11.20;98.00
1700;DHT22;847;48.058;7.810;2023-03-26T15:31:16;11.10;94.60
1700;DHT22;847;48.058;7.810;2023-03-26T15:34:16;11.10;94.80
1700;DHT22;847;48.058;7.810;2023-03-26T15:37:16;11.10;95.00
1700;DHT22;847;48.058;7.810;2023-03-26T15:39:59;11.20;95.80
1700;DHT22;847;48.058;7.810;2023-03-26T15:42:42;11.10;94.70
1700;DHT22;847;48.058;7.810;2023-03-26T15:45:29;11.10;94.80
1700;DHT22;847;48.058;7.810;2023-03-26T15:50:58;11.00;94.50
1700;DHT22;847;48.058;7.810;2023-03-26T15:53:35;10.90;94.60
1700;DHT22;847;48.058;7.810;2023-03-26T15:56:17;10.80;95.60
1700;DHT22;847;48.058;7.810;2023-03-26T15:58:51;10.80;95.70
1700;DHT22;847;48.058;7.810;2023-03-26T16:01:29;10.80;95.60
1700;DHT22;847;48.058;7.810;2023-03-26T16:04:09;10.70;95.20
1700;DHT22;847;48.058;7.810;2023-03-26T16:06:47;10.70;95.10
1700;DHT22;847;48.058;7.810;2023-03-26T16:09:47;10.60;94.40
1700;DHT22;847;48.058;7.810;2023-03-26T16:12:32;10.60;94.90
1700;DHT22;847;48.058;7.810;2023-03-26T16:15:24;10.60;94.60
1700;DHT22;847;48.058;7.810;2023-03-26T16:18:18;10.60;94.30
1700;DHT22;847;48.058;7.810;2023-03-26T16:20:48;10.50;93.30
1700;DHT22;847;48.058;7.810;2023-03-26T16:23:28;10.50;93.70
1700;DHT22;847;48.058;7.810;2023-03-26T16:25:59;10.40;93.10
1700;DHT22;847;48.058;7.810;2023-03-26T16:29:04;10.40;92.90
1700;DHT22;847;48.058;7.810;2023-03-26T16:31:57;10.30;92.60
1700;DHT22;847;48.058;7.810;2023-03-26T16:34:27;10.40;93.10
1700;DHT22;847;48.058;7.810;2023-03-26T16:36:58;10.40;93.40
1700;DHT22;847;48.058;7.810;2023-03-26T16:39:39;10.40;92.70
1700;DHT22;847;48.058;7.810;2023-03-26T16:42:26;10.30;92.30
1700;DHT22;847;48.058;7.810;2023-03-26T16:45:05;10.30;92.50
1700;DHT22;847;48.058;7.810;2023-03-26T16:47:43;10.30;92.10
1700;DHT22;847;48.058;7.810;2023-03-26T16:50:18;10.30;92.40
1700;DHT22;847;48.058;7.810;2023-03-26T16:52:55;10.30;92.60
1700;DHT22;847;48.058;7.810;2023-03-26T16:55:34;10.30;91.30
1700;DHT22;847;48.058;7.810;2023-03-26T16:58:10;10.20;91.30
1700;DHT22;847;48.058;7.810;2023-03-26T17:00:48;10.20;91.60
1700;DHT22;847;48.058;7.810;2023-03-26T17:03:26;10.20;91.90
1700;DHT22;847;48.058;7.810;2023-03-26T17:06:03;10.20;91.90
1700;DHT22;847;48.058;7.810;2023-03-26T17:08:38;10.20;92.30
1700;DHT22;847;48.058;7.810;2023-03-26T17:11:19;10.20;92.90
1700;DHT22;847;48.058;7.810;2023-03-26T17:13:53;10.20;92.70
1700;DHT22;847;48.058;7.810;2023-03-26T17:16:31;10.20;92.90
1700;DHT22;847;48.058;7.810;2023-03-26T17:19:03;10.20;93.00
1700;DHT22;847;48.058;7.810;2023-03-26T17:21:43;10.20;93.10
1700;DHT22;847;48.058;7.810;2023-03-26T17:24:22;10.20;93.20
1700;DHT22;847;48.058;7.810;2023-03-26T17:26:59;10.10;93.40
1700;DHT22;847;48.058;7.810;2023-03-26T17:29:47;10.10;93.80
1700;DHT22;847;48.058;7.810;2023-03-26T17:32:17;10.10;93.60
1700;DHT22;847;48.058;7.810;2023-03-26T17:34:58;10.10;93.90
1700;DHT22;847;48.058;7.810;2023-03-26T17:37:45;10.10;94.10
1700;DHT22;847;48.058;7.810;2023-03-26T17:40:50;10.10;93.80
1700;DHT22;847;48.058;7.810;2023-03-26T17:43:38;10.10;93.90
1700;DHT22;847;48.058;7.810;2023-03-26T17:46:19;10.00;93.90
1700;DHT22;847;48.058;7.810;2023-03-26T17:48:55;10.00;94.10
1700;DHT22;847;48.058;7.810;2023-03-26T17:51:42;10.00;93.80
1700;DHT22;847;48.058;7.810;2023-03-26T17:54:20;10.00;93.80
1700;DHT22;847;48.058;7.810;2023-03-26T17:56:49;10.00;93.90
1700;DHT22;847;48.058;7.810;2023-03-26T17:59:20;10.00;94.10
1700;DHT22;847;48.058;7.810;2023-03-26T18:01:50;10.00;94.30